sensor_id;sensor_type;location;lat;lon;timestamp;pressure;altitude;pressure_sealevel;temperature;humidity
10482;BME280;5288;42.334;23.876;2023-04-30T00:00:23;56235.22;;;-140.56;77.75
10482;BME280;5288;42.334;23.876;2023-04-30T00:02:51;56274.72;;;-140.56;77.94
10482;BME280;5288;42.334;23.876;2023-04-30T00:05:17;56270.78;;;-140.56;77.91
10482;BME280;5288;42.334;23.876;2023-04-30T00:07:44;56270.78;;;-140.56;77.60
10482;BME280;5288;42.334;23.876;2023-04-30T00:10:11;56278.69;;;-140.56;77.51
10482;BME280;5288;42.334;23.876;2023-04-30T00:12:40;56260.91;;;-140.56;77.40
10482;BME280;5288;42.334;23.876;2023-04-30T00:15:07;56266.81;;;-140.56;76.69
10482;BME280;5288;42.334;23.876;2023-04-30T00:17:34;56251.03;;;-140.56;76.39
10482;BME280;5288;42.334;23.876;2023-04-30T00:20:02;56268.81;;;-140.56;76.31
10482;BME280;5288;42.334;23.876;2023-04-30T00:22:29;56278.69;;;-140.56;76.78
10482;BME280;5288;42.334;23.876;2023-04-30T00:24:57;56270.78;;;-140.56;77.28
10482;BME280;5288;42.334;23.876;2023-04-30T00:27:24;56229.28;;;-140.56;77.94
10482;BME280;5288;42.334;23.876;2023-04-30T00:29:53;56286.59;;;-140.56;77.92
10482;BME280;5288;42.334;23.876;2023-04-30T00:32:20;56286.59;;;-140.56;78.09
10482;BME280;5288;42.334;23.876;2023-04-30T00:34:47;56270.78;;;-140.56;78.69
10482;BME280;5288;42.334;23.876;2023-04-30T00:37:14;56280.66;;;-140.56;78.37
10482;BME280;5288;42.334;23.876;2023-04-30T00:39:41;56254.97;;;-140.56;78.72
10482;BME280;5288;42.334;23.876;2023-04-30T00:42:08;56274.72;;;-140.56;78.20
10482;BME280;5288;42.334;23.876;2023-04-30T00:44:35;56260.91;;;-140.56;78.40
10482;BME280;5288;42.334;23.876;2023-04-30T00:47:03;56268.81;;;-140.56;78.10
10482;BME280;5288;42.334;23.876;2023-04-30T00:49:30;56276.72;;;-140.56;77.97
10482;BME280;5288;42.334;23.876;2023-04-30T00:51:57;56258.94;;;-140.56;77.96
10482;BME280;5288;42.334;23.876;2023-04-30T00:54:24;56282.63;;;-140.56;77.65
10482;BME280;5288;42.334;23.876;2023-04-30T00:56:51;56300.44;;;-140.56;78.04
10482;BME280;5288;42.334;23.876;2023-04-30T00:59:18;56245.09;;;-140.56;78.55
10482;BME280;5288;42.334;23.876;2023-04-30T01:01:46;56254.97;;;-140.56;78.47
10482;BME280;5288;42.334;23.876;2023-04-30T01:04:14;56302.41;;;-140.56;78.26
10482;BME280;5288;42.334;23.876;2023-04-30T01:06:41;56288.56;;;-140.56;78.39
10482;BME280;5288;42.334;23.876;2023-04-30T01:09:09;56253.00;;;-140.56;78.21
10482;BME280;5288;42.334;23.876;2023-04-30T01:11:59;56270.78;;;-140.56;77.81
10482;BME280;5288;42.334;23.876;2023-04-30T01:14:28;56256.94;;;-140.56;78.08
10482;BME280;5288;42.334;23.876;2023-04-30T01:17:03;56284.63;;;-140.56;77.67
10482;BME280;5288;42.334;23.876;2023-04-30T01:19:40;56260.91;;;-140.56;77.58
10482;BME280;5288;42.334;23.876;2023-04-30T01:22:11;56280.66;;;-140.56;77.88
10482;BME280;5288;42.334;23.876;2023-04-30T01:24:56;56274.72;;;-140.56;77.85
10482;BME280;5288;42.334;23.876;2023-04-30T01:30:09;56274.72;;;-140.56;77.92
10482;BME280;5288;42.334;23.876;2023-04-30T01:32:37;56270.78;;;-140.56;77.85
10482;BME280;5288;42.334;23.876;2023-04-30T01:35:05;56292.53;;;-140.56;77.35
10482;BME280;5288;42.334;23.876;2023-04-30T01:37:38;56278.69;;;-140.56;78.30
10482;BME280;5288;42.334;23.876;2023-04-30T01:40:19;56276.72;;;-140.56;79.58
10482;BME280;5288;42.334;23.876;2023-04-30T01:42:55;56276.72;;;-140.56;80.45
10482;BME280;5288;42.334;23.876;2023-04-30T01:45:40;56300.44;;;-140.56;80.60
10482;BME280;5288;42.334;23.876;2023-04-30T01:48:17;56290.53;;;-140.56;80.86
10482;BME280;5288;42.334;23.876;2023-04-30T01:50:50;56284.63;;;-140.56;80.91
10482;BME280;5288;42.334;23.876;2023-04-30T01:53:20;56288.56;;;-140.56;80.27
10482;BME280;5288;42.334;23.876;2023-04-30T01:55:50;56253.00;;;-140.56;79.78
10482;BME280;5288;42.334;23.876;2023-04-30T01:58:19;56280.66;;;-140.56;79.66
10482;BME280;5288;42.334;23.876;2023-04-30T02:00:50;56298.44;;;-140.56;80.21
10482;BME280;5288;42.334;23.876;2023-04-30T02:03:18;56306.34;;;-140.56;79.78
10482;BME280;5288;42.334;23.876;2023-04-30T02:05:45;56298.44;;;-140.56;79.89
10482;BME280;5288;42.334;23.876;2023-04-30T02:08:13;56284.63;;;-140.56;79.63
10482;BME280;5288;42.334;23.876;2023-04-30T02:10:40;56308.34;;;-140.56;79.53
10482;BME280;5288;42.334;23.876;2023-04-30T02:13:07;56300.44;;;-140.56;80.32
10482;BME280;5288;42.334;23.876;2023-04-30T02:15:33;56302.41;;;-140.56;80.71
10482;BME280;5288;42.334;23.876;2023-04-30T02:18:02;56294.50;;;-140.56;81.51
10482;BME280;5288;42.334;23.876;2023-04-30T02:20:29;56328.09;;;-140.56;82.38
10482;BME280;5288;42.334;23.876;2023-04-30T02:22:56;56324.13;;;-140.56;82.56
10482;BME280;5288;42.334;23.876;2023-04-30T02:25:23;56286.59;;;-140.56;82.54
10482;BME280;5288;42.334;23.876;2023-04-30T02:27:50;56324.13;;;-140.56;82.46
10482;BME280;5288;42.334;23.876;2023-04-30T02:30:17;56314.25;;;-140.56;82.93
10482;BME280;5288;42.334;23.876;2023-04-30T02:32:45;56296.47;;;-140.56;83.22
10482;BME280;5288;42.334;23.876;2023-04-30T02:35:13;56310.31;;;-140.56;83.49
10482;BME280;5288;42.334;23.876;2023-04-30T02:37:40;56306.34;;;-140.56;83.50
10482;BME280;5288;42.334;23.876;2023-04-30T02:40:08;56318.22;;;-140.56;83.69
10482;BME280;5288;42.334;23.876;2023-04-30T02:42:36;56308.34;;;-140.56;83.42
10482;BME280;5288;42.334;23.876;2023-04-30T02:45:03;56320.19;;;-140.56;84.02
10482;BME280;5288;42.334;23.876;2023-04-30T02:47:30;56318.22;;;-140.56;83.97
10482;BME280;5288;42.334;23.876;2023-04-30T02:49:57;56318.22;;;-140.56;83.86
10482;BME280;5288;42.334;23.876;2023-04-30T02:52:26;56343.91;;;-140.56;83.64
10482;BME280;5288;42.334;23.876;2023-04-30T02:54:53;56292.53;;;-140.56;83.49
10482;BME280;5288;42.334;23.876;2023-04-30T02:57:19;56314.25;;;-140.56;83.27
10482;BME280;5288;42.334;23.876;2023-04-30T02:59:47;56310.31;;;-140.56;82.96
10482;BME280;5288;42.334;23.876;2023-04-30T03:02:14;56294.50;;;-140.56;82.35
10482;BME280;5288;42.334;23.876;2023-04-30T03:04:41;56320.19;;;-140.56;82.80
10482;BME280;5288;42.334;23.876;2023-04-30T03:07:08;56341.94;;;-140.56;82.60
10482;BME280;5288;42.334;23.876;2023-04-30T03:09:36;56286.59;;;-140.56;82.67
10482;BME280;5288;42.334;23.876;2023-04-30T03:12:04;56377.50;;;-140.56;82.03
10482;BME280;5288;42.334;23.876;2023-04-30T03:14:31;56312.28;;;-140.56;82.20
10482;BME280;5288;42.334;23.876;2023-04-30T03:16:58;56288.56;;;-140.56;81.74
10482;BME280;5288;42.334;23.876;2023-04-30T03:19:25;56314.25;;;-140.56;80.94
10482;BME280;5288;42.334;23.876;2023-04-30T03:21:52;56326.13;;;-140.56;80.92
10482;BME280;5288;42.334;23.876;2023-04-30T03:24:20;56330.06;;;-140.56;81.36
10482;BME280;5288;42.334;23.876;2023-04-30T03:26:48;56284.63;;;-140.56;81.69
10482;BME280;5288;42.334;23.876;2023-04-30T03:29:15;56304.38;;;-140.56;81.77
10482;BME280;5288;42.334;23.876;2023-04-30T03:31:42;56341.94;;;-140.56;81.60
10482;BME280;5288;42.334;23.876;2023-04-30T03:34:09;56326.13;;;-140.56;81.43
10482;BME280;5288;42.334;23.876;2023-04-30T03:36:37;56298.44;;;-140.56;81.28
10482;BME280;5288;42.334;23.876;2023-04-30T03:39:04;56367.63;;;-140.56;81.45
10482;BME280;5288;42.334;23.876;2023-04-30T03:41:31;56341.94;;;-140.56;81.54
10482;BME280;5288;42.334;23.876;2023-04-30T03:43:59;56322.16;;;-140.56;81.58
10482;BME280;5288;42.334;23.876;2023-04-30T03:46:26;56298.44;;;-140.56;81.72
10482;BME280;5288;42.334;23.876;2023-04-30T03:48:53;56322.16;;;-140.56;81.89
10482;BME280;5288;42.334;23.876;2023-04-30T03:51:20;56328.09;;;-140.56;81.79
10482;BME280;5288;42.334;23.876;2023-04-30T03:53:47;56316.25;;;-140.56;81.96
10482;BME280;5288;42.334;23.876;2023-04-30T03:56:14;56324.13;;;-140.56;82.21
10482;BME280;5288;42.334;23.876;2023-04-30T03:58:41;56330.06;;;-140.56;82.26
10482;BME280;5288;42.334;23.876;2023-04-30T04:01:10;56318.22;;;-140.56;82.49
10482;BME280;5288;42.334;23.876;2023-04-30T04:03:37;56330.06;;;-140.56;82.70
10482;BME280;5288;42.334;23.876;2023-04-30T04:06:04;56314.25;;;-140.56;82.51
10482;BME280;5288;42.334;23.876;2023-04-30T04:08:31;56314.25;;;-140.56;82.50
10482;BME280;5288;42.334;23.876;2023-04-30T04:10:58;56306.34;;;-140.56;82.94
10482;BME280;5288;42.334;23.876;2023-04-30T04:13:25;56355.75;;;-140.56;82.84
10482;BME280;5288;42.334;23.876;2023-04-30T04:15:52;56330.06;;;-140.56;83.09
10482;BME280;5288;42.334;23.876;2023-04-30T04:18:21;56314.25;;;-140.56;82.93
10482;BME280;5288;42.334;23.876;2023-04-30T04:20:48;56280.66;;;-140.56;82.63
10482;BME280;5288;42.334;23.876;2023-04-30T04:23:15;56314.25;;;-140.56;82.32
10482;BME280;5288;42.334;23.876;2023-04-30T04:25:42;56288.56;;;-140.56;82.35
10482;BME280;5288;42.334;23.876;2023-04-30T04:28:14;56357.75;;;-140.56;81.96
10482;BME280;5288;42.334;23.876;2023-04-30T04:30:41;56316.25;;;-140.56;81.49
10482;BME280;5288;42.334;23.876;2023-04-30T04:33:08;56312.28;;;-140.56;80.82
10482;BME280;5288;42.334;23.876;2023-04-30T04:35:37;56282.63;;;-140.56;80.74
10482;BME280;5288;42.334;23.876;2023-04-30T04:38:04;56324.13;;;-140.56;80.59
10482;BME280;5288;42.334;23.876;2023-04-30T04:40:31;56312.28;;;-140.56;80.80
10482;BME280;5288;42.334;23.876;2023-04-30T04:42:59;56314.25;;;-140.56;80.58
10482;BME280;5288;42.334;23.876;2023-04-30T04:45:26;56320.19;;;-140.56;80.35
10482;BME280;5288;42.334;23.876;2023-04-30T04:47:53;56310.31;;;-140.56;80.30
10482;BME280;5288;42.334;23.876;2023-04-30T04:50:20;56310.31;;;-140.56;80.09
10482;BME280;5288;42.334;23.876;2023-04-30T04:52:49;56298.44;;;-140.56;79.73
10482;BME280;5288;42.334;23.876;2023-04-30T04:55:16;56286.59;;;-140.56;79.54
10482;BME280;5288;42.334;23.876;2023-04-30T04:57:43;56306.34;;;-140.56;79.66
10482;BME280;5288;42.334;23.876;2023-04-30T05:00:11;56272.75;;;-140.56;79.58
10482;BME280;5288;42.334;23.876;2023-04-30T05:02:38;56314.25;;;-140.56;79.04
10482;BME280;5288;42.334;23.876;2023-04-30T05:05:05;56278.69;;;-140.56;78.57
10482;BME280;5288;42.334;23.876;2023-04-30T05:07:32;56312.28;;;-140.56;78.25
10482;BME280;5288;42.334;23.876;2023-04-30T05:10:01;56292.53;;;-140.56;78.13
10482;BME280;5288;42.334;23.876;2023-04-30T05:12:31;56294.50;;;-140.56;78.17
10482;BME280;5288;42.334;23.876;2023-04-30T05:14:58;56341.94;;;-140.56;78.15
10482;BME280;5288;42.334;23.876;2023-04-30T05:17:25;56306.34;;;-140.56;78.22
10482;BME280;5288;42.334;23.876;2023-04-30T05:19:52;56272.75;;;-140.56;78.17
10482;BME280;5288;42.334;23.876;2023-04-30T05:22:19;56272.75;;;-140.56;77.95
10482;BME280;5288;42.334;23.876;2023-04-30T05:24:46;56270.78;;;-140.56;77.60
10482;BME280;5288;42.334;23.876;2023-04-30T05:27:15;56290.53;;;-140.56;77.30
10482;BME280;5288;42.334;23.876;2023-04-30T05:29:42;56270.78;;;-140.56;77.06
10482;BME280;5288;42.334;23.876;2023-04-30T05:32:09;56256.94;;;-140.56;76.96
10482;BME280;5288;42.334;23.876;2023-04-30T05:34:36;56282.63;;;-140.56;76.71
10482;BME280;5288;42.334;23.876;2023-04-30T05:37:03;56249.03;;;-140.56;76.63
10482;BME280;5288;42.334;23.876;2023-04-30T05:39:30;56247.06;;;-140.56;76.19
10482;BME280;5288;42.334;23.876;2023-04-30T05:41:57;56274.72;;;-140.56;75.82
10482;BME280;5288;42.334;23.876;2023-04-30T05:44:25;56249.03;;;-140.56;75.22
10482;BME280;5288;42.334;23.876;2023-04-30T05:46:54;56298.44;;;-140.56;74.82
10482;BME280;5288;42.334;23.876;2023-04-30T05:49:21;56262.88;;;-140.56;74.06
10482;BME280;5288;42.334;23.876;2023-04-30T05:51:48;56249.03;;;-140.56;73.56
10482;BME280;5288;42.334;23.876;2023-04-30T05:54:15;56278.69;;;-140.56;73.01
10482;BME280;5288;42.334;23.876;2023-04-30T05:56:42;56239.16;;;-140.56;73.08
10482;BME280;5288;42.334;23.876;2023-04-30T05:59:09;56276.72;;;-140.56;72.65
10482;BME280;5288;42.334;23.876;2023-04-30T06:01:37;56310.31;;;-140.56;73.35
10482;BME280;5288;42.334;23.876;2023-04-30T06:04:04;56282.63;;;-140.56;73.59
10482;BME280;5288;42.334;23.876;2023-04-30T06:06:33;56268.81;;;-140.56;72.74
10482;BME280;5288;42.334;23.876;2023-04-30T06:09:01;56254.97;;;-140.56;72.45
10482;BME280;5288;42.334;23.876;2023-04-30T06:11:28;56270.78;;;-140.56;72.49
10482;BME280;5288;42.334;23.876;2023-04-30T06:13:55;56256.94;;;-140.56;71.96
10482;BME280;5288;42.334;23.876;2023-04-30T06:16:23;56266.81;;;-140.56;70.95
10482;BME280;5288;42.334;23.876;2023-04-30T06:18:51;56243.13;;;-140.56;70.13
10482;BME280;5288;42.334;23.876;2023-04-30T06:21:18;56247.06;;;-140.56;69.81
10482;BME280;5288;42.334;23.876;2023-04-30T06:23:45;56219.41;;;-140.56;69.70
10482;BME280;5288;42.334;23.876;2023-04-30T06:26:13;56195.69;;;-140.56;68.60
10482;BME280;5288;42.334;23.876;2023-04-30T06:28:40;56231.25;;;-140.56;67.85
10482;BME280;5288;42.334;23.876;2023-04-30T06:31:07;56211.50;;;-140.56;65.95
10482;BME280;5288;42.334;23.876;2023-04-30T06:33:34;56185.81;;;-140.56;64.62
10482;BME280;5288;42.334;23.876;2023-04-30T06:36:11;56187.78;;;-140.56;63.18
10482;BME280;5288;42.334;23.876;2023-04-30T06:38:41;56191.72;;;-140.56;61.87
10482;BME280;5288;42.334;23.876;2023-04-30T06:41:08;56177.91;;;-140.56;60.96
10482;BME280;5288;42.334;23.876;2023-04-30T06:43:35;56175.91;;;-140.56;59.43
10482;BME280;5288;42.334;23.876;2023-04-30T06:46:02;56148.25;;;-140.56;59.74
10482;BME280;5288;42.334;23.876;2023-04-30T06:48:29;56154.19;;;-140.56;57.32
10482;BME280;5288;42.334;23.876;2023-04-30T06:50:56;56126.50;;;-140.56;57.31
10482;BME280;5288;42.334;23.876;2023-04-30T06:53:25;56144.31;;;-140.56;56.24
10482;BME280;5288;42.334;23.876;2023-04-30T06:55:52;56160.13;;;-140.56;55.96
10482;BME280;5288;42.334;23.876;2023-04-30T06:58:19;56148.25;;;-140.56;55.34
10482;BME280;5288;42.334;23.876;2023-04-30T07:00:47;56122.56;;;-140.56;55.62
10482;BME280;5288;42.334;23.876;2023-04-30T07:03:13;56152.22;;;-140.56;54.01
10482;BME280;5288;42.334;23.876;2023-04-30T07:05:40;56128.50;;;-140.56;55.46
10482;BME280;5288;42.334;23.876;2023-04-30T07:08:07;56122.56;;;-140.56;60.25
10482;BME280;5288;42.334;23.876;2023-04-30T07:10:36;56152.22;;;-140.56;60.32
10482;BME280;5288;42.334;23.876;2023-04-30T07:13:03;56144.31;;;-140.56;61.60
10482;BME280;5288;42.334;23.876;2023-04-30T07:15:30;56160.13;;;-140.56;61.21
10482;BME280;5288;42.334;23.876;2023-04-30T07:17:57;56122.56;;;-140.56;59.83
10482;BME280;5288;42.334;23.876;2023-04-30T07:20:24;56173.94;;;-140.56;61.92
10482;BME280;5288;42.334;23.876;2023-04-30T07:22:51;56164.06;;;-140.56;63.90
10482;BME280;5288;42.334;23.876;2023-04-30T07:25:19;56154.19;;;-140.56;63.02
10482;BME280;5288;42.334;23.876;2023-04-30T07:27:50;56136.41;;;-140.56;62.65
10482;BME280;5288;42.334;23.876;2023-04-30T07:30:17;56181.84;;;-140.56;62.80
10482;BME280;5288;42.334;23.876;2023-04-30T07:32:46;56146.28;;;-140.56;63.23
10482;BME280;5288;42.334;23.876;2023-04-30T07:35:13;56124.53;;;-140.56;62.32
10482;BME280;5288;42.334;23.876;2023-04-30T07:37:40;56116.63;;;-140.56;61.06
10482;BME280;5288;42.334;23.876;2023-04-30T07:40:09;56134.41;;;-140.56;59.19
10482;BME280;5288;42.334;23.876;2023-04-30T07:42:38;56120.59;;;-140.56;58.08
10482;BME280;5288;42.334;23.876;2023-04-30T07:45:07;56154.19;;;-140.56;56.58
10482;BME280;5288;42.334;23.876;2023-04-30T07:47:34;56112.69;;;-140.56;54.71
10482;BME280;5288;42.334;23.876;2023-04-30T07:50:01;56122.56;;;-140.56;50.15
10482;BME280;5288;42.334;23.876;2023-04-30T07:52:29;56088.97;;;-140.56;48.28
10482;BME280;5288;42.334;23.876;2023-04-30T07:54:55;56102.81;;;-140.56;46.92
10482;BME280;5288;42.334;23.876;2023-04-30T07:57:22;56132.44;;;-140.56;45.36
10482;BME280;5288;42.334;23.876;2023-04-30T07:59:51;56065.25;;;-140.56;49.50
10482;BME280;5288;42.334;23.876;2023-04-30T08:02:19;56075.13;;;-140.56;45.51
10482;BME280;5288;42.334;23.876;2023-04-30T08:04:52;56075.13;;;-140.56;45.04
10482;BME280;5288;42.334;23.876;2023-04-30T08:07:19;56092.91;;;-140.56;46.23
10482;BME280;5288;42.334;23.876;2023-04-30T08:09:46;56073.16;;;-140.56;47.60
10482;BME280;5288;42.334;23.876;2023-04-30T08:12:13;56081.06;;;-140.56;45.93
10482;BME280;5288;42.334;23.876;2023-04-30T08:14:42;56075.13;;;-140.56;41.84
10482;BME280;5288;42.334;23.876;2023-04-30T08:17:09;56094.91;;;-140.56;42.45
10482;BME280;5288;42.334;23.876;2023-04-30T08:19:37;56069.22;;;-140.56;41.64
10482;BME280;5288;42.334;23.876;2023-04-30T08:22:04;56065.25;;;-140.56;42.30
10482;BME280;5288;42.334;23.876;2023-04-30T08:24:31;56085.00;;;-140.56;41.50
10482;BME280;5288;42.334;23.876;2023-04-30T08:26:58;56057.34;;;-140.56;40.78
10482;BME280;5288;42.334;23.876;2023-04-30T08:29:28;56102.81;;;-140.56;40.89
10482;BME280;5288;42.334;23.876;2023-04-30T08:32:01;56081.06;;;-140.56;42.10
10482;BME280;5288;42.334;23.876;2023-04-30T08:34:30;56085.00;;;-140.56;40.91
10482;BME280;5288;42.334;23.876;2023-04-30T08:36:58;56063.28;;;-140.56;41.20
10482;BME280;5288;42.334;23.876;2023-04-30T08:39:25;56090.94;;;-140.56;41.68
10482;BME280;5288;42.334;23.876;2023-04-30T08:41:54;56085.00;;;-140.56;40.92
10482;BME280;5288;42.334;23.876;2023-04-30T08:44:22;56075.13;;;-140.56;42.05
10482;BME280;5288;42.334;23.876;2023-04-30T08:46:52;56053.41;;;-140.56;41.43
10482;BME280;5288;42.334;23.876;2023-04-30T08:49:20;56045.50;;;-140.56;42.38
10482;BME280;5288;42.334;23.876;2023-04-30T08:51:48;56061.31;;;-140.56;40.45
10482;BME280;5288;42.334;23.876;2023-04-30T08:54:17;56071.19;;;-140.56;40.68
10482;BME280;5288;42.334;23.876;2023-04-30T08:56:44;56063.28;;;-140.56;40.11
10482;BME280;5288;42.334;23.876;2023-04-30T08:59:11;56069.22;;;-140.56;40.76
10482;BME280;5288;42.334;23.876;2023-04-30T09:01:39;56071.19;;;-140.56;40.93
10482;BME280;5288;42.334;23.876;2023-04-30T09:04:07;56057.34;;;-140.56;40.34
10482;BME280;5288;42.334;23.876;2023-04-30T09:06:34;56037.59;;;-140.56;40.06
10482;BME280;5288;42.334;23.876;2023-04-30T09:09:08;56055.38;;;-140.56;40.20
10482;BME280;5288;42.334;23.876;2023-04-30T09:11:37;56057.34;;;-140.56;40.40
10482;BME280;5288;42.334;23.876;2023-04-30T09:14:04;56061.31;;;-140.56;39.83
10482;BME280;5288;42.334;23.876;2023-04-30T09:16:44;56067.22;;;-140.56;40.03
10482;BME280;5288;42.334;23.876;2023-04-30T09:19:22;56071.19;;;-140.56;40.11
10482;BME280;5288;42.334;23.876;2023-04-30T09:21:49;56063.28;;;-140.56;39.32
10482;BME280;5288;42.334;23.876;2023-04-30T09:24:17;56065.25;;;-140.56;39.80
10482;BME280;5288;42.334;23.876;2023-04-30T09:26:45;56059.31;;;-140.56;40.30
10482;BME280;5288;42.334;23.876;2023-04-30T09:29:13;56063.28;;;-140.56;39.16
10482;BME280;5288;42.334;23.876;2023-04-30T09:31:42;56033.63;;;-140.56;39.26
10482;BME280;5288;42.334;23.876;2023-04-30T09:34:10;56037.59;;;-140.56;39.55
10482;BME280;5288;42.334;23.876;2023-04-30T09:36:50;56011.91;;;-140.56;38.77
10482;BME280;5288;42.334;23.876;2023-04-30T09:39:19;56041.53;;;-140.56;39.36
10482;BME280;5288;42.334;23.876;2023-04-30T09:41:49;56063.28;;;-140.56;37.94
10482;BME280;5288;42.334;23.876;2023-04-30T09:44:26;56043.50;;;-140.56;37.89
10482;BME280;5288;42.334;23.876;2023-04-30T09:46:55;56043.50;;;-140.56;37.08
10482;BME280;5288;42.334;23.876;2023-04-30T09:49:22;56041.53;;;-140.56;37.60
10482;BME280;5288;42.334;23.876;2023-04-30T09:51:53;56031.66;;;-140.56;38.58
10482;BME280;5288;42.334;23.876;2023-04-30T09:54:22;56053.41;;;-140.56;37.67
10482;BME280;5288;42.334;23.876;2023-04-30T09:56:53;56063.28;;;-140.56;37.81
10482;BME280;5288;42.334;23.876;2023-04-30T09:59:27;56049.44;;;-140.56;37.76
10482;BME280;5288;42.334;23.876;2023-04-30T10:01:57;56037.59;;;-140.56;38.69
10482;BME280;5288;42.334;23.876;2023-04-30T10:04:27;56073.16;;;-140.56;38.80
10482;BME280;5288;42.334;23.876;2023-04-30T10:06:56;56039.56;;;-140.56;39.70
10482;BME280;5288;42.334;23.876;2023-04-30T10:09:27;56071.19;;;-140.56;41.74
10482;BME280;5288;42.334;23.876;2023-04-30T10:11:57;56083.03;;;-140.56;42.25
10482;BME280;5288;42.334;23.876;2023-04-30T10:14:25;56079.09;;;-140.56;43.36
10482;BME280;5288;42.334;23.876;2023-04-30T10:17:04;56087.00;;;-140.56;42.64
10482;BME280;5288;42.334;23.876;2023-04-30T10:19:38;56087.00;;;-140.56;43.98
10482;BME280;5288;42.334;23.876;2023-04-30T10:22:07;56057.34;;;-140.56;44.24
10482;BME280;5288;42.334;23.876;2023-04-30T10:24:35;56096.88;;;-140.56;43.97
10482;BME280;5288;42.334;23.876;2023-04-30T10:27:05;56088.97;;;-140.56;44.21
10482;BME280;5288;42.334;23.876;2023-04-30T10:29:32;56065.25;;;-140.56;45.33
10482;BME280;5288;42.334;23.876;2023-04-30T10:31:59;56059.31;;;-140.56;43.72
10482;BME280;5288;42.334;23.876;2023-04-30T10:34:37;56053.41;;;-140.56;43.74
10482;BME280;5288;42.334;23.876;2023-04-30T10:37:22;56059.31;;;-140.56;41.16
10482;BME280;5288;42.334;23.876;2023-04-30T10:39:50;56031.66;;;-140.56;39.07
10482;BME280;5288;42.334;23.876;2023-04-30T10:42:19;56011.91;;;-140.56;38.16
10482;BME280;5288;42.334;23.876;2023-04-30T10:44:46;56017.81;;;-140.56;38.87
10482;BME280;5288;42.334;23.876;2023-04-30T10:47:15;55994.13;;;-140.56;38.08
10482;BME280;5288;42.334;23.876;2023-04-30T10:49:44;56015.84;;;-140.56;38.20
10482;BME280;5288;42.334;23.876;2023-04-30T10:52:12;56027.72;;;-140.56;38.05
10482;BME280;5288;42.334;23.876;2023-04-30T10:54:48;56039.56;;;-140.56;38.69
10482;BME280;5288;42.334;23.876;2023-04-30T10:57:16;56004.00;;;-140.56;37.86
10482;BME280;5288;42.334;23.876;2023-04-30T10:59:53;55970.41;;;-140.56;38.36
10482;BME280;5288;42.334;23.876;2023-04-30T11:02:39;56000.03;;;-140.56;38.18
10482;BME280;5288;42.334;23.876;2023-04-30T11:05:11;56017.81;;;-140.56;37.56
10482;BME280;5288;42.334;23.876;2023-04-30T11:07:46;56004.00;;;-140.56;37.18
10482;BME280;5288;42.334;23.876;2023-04-30T11:10:15;55982.25;;;-140.56;36.36
10482;BME280;5288;42.334;23.876;2023-04-30T11:12:47;56000.03;;;-140.56;35.62
10482;BME280;5288;42.334;23.876;2023-04-30T11:15:17;56009.91;;;-140.56;36.34
10482;BME280;5288;42.334;23.876;2023-04-30T11:17:47;55990.16;;;-140.56;36.39
10482;BME280;5288;42.334;23.876;2023-04-30T11:20:18;56015.84;;;-140.56;36.45
10482;BME280;5288;42.334;23.876;2023-04-30T11:22:46;56000.03;;;-140.56;36.08
10482;BME280;5288;42.334;23.876;2023-04-30T11:25:18;56002.00;;;-140.56;36.58
10482;BME280;5288;42.334;23.876;2023-04-30T11:27:45;56004.00;;;-140.56;36.42
10482;BME280;5288;42.334;23.876;2023-04-30T11:30:15;56051.41;;;-140.56;36.94
10482;BME280;5288;42.334;23.876;2023-04-30T11:32:44;56047.47;;;-140.56;38.41
10482;BME280;5288;42.334;23.876;2023-04-30T11:35:12;56067.22;;;-140.56;39.94
10482;BME280;5288;42.334;23.876;2023-04-30T11:37:42;56061.31;;;-140.56;43.76
10482;BME280;5288;42.334;23.876;2023-04-30T11:40:11;56114.66;;;-140.56;47.82
10482;BME280;5288;42.334;23.876;2023-04-30T11:42:40;56120.59;;;-140.56;51.92
10482;BME280;5288;42.334;23.876;2023-04-30T11:45:09;56134.41;;;-140.56;59.35
10482;BME280;5288;42.334;23.876;2023-04-30T11:47:53;56168.00;;;-140.56;62.88
10482;BME280;5288;42.334;23.876;2023-04-30T11:50:21;56144.31;;;-140.56;63.69
10482;BME280;5288;42.334;23.876;2023-04-30T11:52:54;56132.44;;;-140.56;63.41
10482;BME280;5288;42.334;23.876;2023-04-30T11:55:22;56128.50;;;-140.56;63.69
10482;BME280;5288;42.334;23.876;2023-04-30T11:57:50;56162.09;;;-140.56;63.94
10482;BME280;5288;42.334;23.876;2023-04-30T12:00:20;56162.09;;;-140.56;66.34
10482;BME280;5288;42.334;23.876;2023-04-30T12:02:49;56154.19;;;-140.56;66.57
10482;BME280;5288;42.334;23.876;2023-04-30T12:05:17;56144.31;;;-140.56;66.06
10482;BME280;5288;42.334;23.876;2023-04-30T12:07:46;56156.16;;;-140.56;66.29
10482;BME280;5288;42.334;23.876;2023-04-30T12:10:14;56140.34;;;-140.56;65.92
10482;BME280;5288;42.334;23.876;2023-04-30T12:12:42;56144.31;;;-140.56;63.66
10482;BME280;5288;42.334;23.876;2023-04-30T12:15:11;56110.72;;;-140.56;62.57
10482;BME280;5288;42.334;23.876;2023-04-30T12:17:39;56173.94;;;-140.56;60.95
10482;BME280;5288;42.334;23.876;2023-04-30T12:20:10;56183.81;;;-140.56;64.18
10482;BME280;5288;42.334;23.876;2023-04-30T12:22:37;56183.81;;;-140.56;67.45
10482;BME280;5288;42.334;23.876;2023-04-30T12:25:06;56183.81;;;-140.56;69.81
10482;BME280;5288;42.334;23.876;2023-04-30T12:27:34;56205.56;;;-140.56;72.03
10482;BME280;5288;42.334;23.876;2023-04-30T12:30:04;56221.38;;;-140.56;72.49
10482;BME280;5288;42.334;23.876;2023-04-30T12:32:39;56203.59;;;-140.56;71.03
10482;BME280;5288;42.334;23.876;2023-04-30T12:35:13;56197.66;;;-140.56;71.06
10482;BME280;5288;42.334;23.876;2023-04-30T12:37:44;56199.63;;;-140.56;71.78
10482;BME280;5288;42.334;23.876;2023-04-30T12:40:12;56199.63;;;-140.56;73.28
10482;BME280;5288;42.334;23.876;2023-04-30T12:42:40;56199.63;;;-140.56;72.97
10482;BME280;5288;42.334;23.876;2023-04-30T12:45:08;56211.50;;;-140.56;72.29
10482;BME280;5288;42.334;23.876;2023-04-30T12:47:37;56203.59;;;-140.56;72.16
10482;BME280;5288;42.334;23.876;2023-04-30T12:50:09;56179.88;;;-140.56;72.15